Titus — WCV9471 — position and weather

sailwx.info

Track history (hours):
 
Tides and Currents Weather Stations Pressure Air Temp Water Temp Dewpoint Dewpoint Depression Visibility Wind Speed Wind Dir Waves Ship Positions

Titus

Owner: Y & S MARINE INC, Belle Chasse, LA. More information available from US FCC via Universal Licensing System and Coast Guard Vessel Documentation Center.

Last reported at 2017-Sep-20 08:36 UTC. Time now 2017-Sep-22 09:53 UTC.
Position N 29°44' W 092°06'.

Length 32 m; draft 2 m.

MMSI: 367090270.

Date/timePositionNaut miles runAvg speedWind from/ knotsBaromVisibWave heightAir tempDewpointWater temp
2017-Sep-20 08:36N 29°44' W 092°06'219.6
2017-Sep-20 08:31N 29°45' W 092°07'2 4.4
2017-Sep-20 08:00N 29°48' W 092°09'0 0.0
2017-Sep-20 07:30N 29°48' W 092°09'0 0.0
2017-Sep-20 07:00N 29°48' W 092°09'0 0.0
2017-Sep-20 06:30N 29°48' W 092°09'0 0.0
2017-Sep-20 06:00N 29°48' W 092°09'0 0.0
2017-Sep-20 05:30N 29°48' W 092°09'0 0.0
2017-Sep-20 05:00N 29°48' W 092°09'0 0.0
2017-Sep-20 04:30N 29°48' W 092°09'0 0.0
2017-Sep-20 04:00N 29°48' W 092°09'0 0.0
2017-Sep-20 03:30N 29°48' W 092°09'1 2.0
2017-Sep-20 03:00N 29°47' W 092°10'1 2.3
2017-Sep-20 02:30N 29°47' W 092°11'0 0.0
2017-Sep-20 02:00N 29°47' W 092°11'2 4.0
2017-Sep-20 01:30N 29°47' W 092°09'0 0.9
2017-Sep-20 01:00N 29°48' W 092°09'0 0.0
2017-Sep-20 00:30N 29°48' W 092°09'0 0.2
2017-Sep-20 00:00N 29°47' W 092°09'0 0.0
2017-Sep-19 23:30N 29°47' W 092°09'0 0.0
2017-Sep-19 23:00N 29°47' W 092°09'4 7.9
2017-Sep-19 22:30N 29°44' W 092°06'  
2017-Sep-16 03:02N 29°42' W 092°05'219.0
2017-Sep-16 02:56N 29°44' W 092°06'510.6
2017-Sep-16 02:30N 29°47' W 092°11'0 0.3
2017-Sep-16 02:00N 29°47' W 092°11'0 0.0
2017-Sep-16 01:28N 29°47' W 092°11'0 0.0
2017-Sep-16 01:00N 29°47' W 092°11'2 4.2
2017-Sep-16 00:30N 29°48' W 092°09'0 0.0
2017-Sep-16 00:00N 29°48' W 092°09'3 5.8
2017-Sep-15 23:31N 29°48' W 092°05'2 0.1
2017-Sep-15 02:53N 29°49' W 092°03'513.3
2017-Sep-15 02:30N 29°47' W 092°08'2 4.8
2017-Sep-15 02:01N 29°47' W 092°11'0 0.0
2017-Sep-15 01:30N 29°47' W 092°11'2 4.2
2017-Sep-15 01:00N 29°47' W 092°09'0 0.1
2017-Sep-15 00:30N 29°48' W 092°09'4 8.4
2017-Sep-15 00:00N 29°44' W 092°06'2 0.1
2017-Sep-13 13:45N 29°42' W 092°05'518.2
2017-Sep-13 13:30N 29°46' W 092°08'3 6.2
2017-Sep-13 13:00N 29°47' W 092°11'0 0.0
2017-Sep-13 12:30N 29°47' W 092°11'2 4.3
2017-Sep-13 12:00N 29°48' W 092°09'4 7.4
2017-Sep-13 11:30N 29°44' W 092°07'3 0.8
2017-Sep-13 08:08N 29°42' W 092°05'318.9
2017-Sep-13 07:59N 29°45' W 092°07'3 7.2
2017-Sep-13 07:30N 29°48' W 092°09'0 0.0
2017-Sep-13 07:00N 29°48' W 092°09'0 0.0
2017-Sep-13 06:30N 29°48' W 092°09'0 0.0
2017-Sep-13 06:00N 29°48' W 092°09'0 0.0
2017-Sep-13 05:30N 29°48' W 092°09'1 2.5
2017-Sep-13 05:00N 29°47' W 092°10'1 1.9
2017-Sep-13 04:30N 29°47' W 092°11'0 0.0
2017-Sep-13 04:00N 29°47' W 092°11'0 0.0
2017-Sep-13 03:30N 29°47' W 092°11'0 0.0
2017-Sep-13 03:00N 29°47' W 092°11'0 0.0
2017-Sep-13 02:31N 29°47' W 092°11'2 3.8
2017-Sep-13 02:00N 29°47' W 092°09'0 0.9
2017-Sep-13 01:31N 29°47' W 092°09'0 0.0
2017-Sep-13 01:00N 29°47' W 092°09'0 0.1
2017-Sep-13 00:30N 29°48' W 092°09'0 0.0
2017-Sep-13 00:00N 29°48' W 092°09'0 0.0
2017-Sep-12 23:30N 29°48' W 092°09'5 9.2
2017-Sep-12 23:00N 29°44' W 092°06'2 0.2
2017-Sep-12 08:17N 29°45' W 092°07'2 7.8
2017-Sep-12 08:00N 29°48' W 092°09'0 0.0
2017-Sep-12 07:30N 29°48' W 092°09'0 0.0
2017-Sep-12 06:59N 29°48' W 092°09'0 0.0
2017-Sep-12 06:30N 29°48' W 092°09'0 0.0
2017-Sep-12 05:59N 29°48' W 092°09'0 0.0
2017-Sep-12 05:29N 29°48' W 092°09'0 0.0
2017-Sep-12 05:00N 29°48' W 092°09'0 0.0
2017-Sep-12 04:30N 29°48' W 092°09'0 0.0
2017-Sep-12 04:00N 29°48' W 092°09'0 0.0
2017-Sep-12 03:30N 29°48' W 092°09'0 0.0
2017-Sep-12 03:00N 29°48' W 092°09'0 0.0
2017-Sep-12 02:30N 29°48' W 092°09'0 0.0
2017-Sep-12 02:00N 29°48' W 092°09'0 0.0
2017-Sep-12 01:30N 29°48' W 092°09'0 0.0
2017-Sep-12 01:00N 29°48' W 092°09'3 5.7
2017-Sep-12 00:30N 29°45' W 092°07'3 0.2
2017-Sep-11 08:28N 29°42' W 092°05'612.9
2017-Sep-11 08:01N 29°48' W 092°09'0 0.0
2017-Sep-11 07:29N 29°48' W 092°09'0 0.0
2017-Sep-11 06:58N 29°48' W 092°09'0 0.0
2017-Sep-11 06:30N 29°48' W 092°09'0 0.0
2017-Sep-11 05:58N 29°48' W 092°09'0 0.0
2017-Sep-11 05:29N 29°48' W 092°09'0 0.0
2017-Sep-11 05:01N 29°48' W 092°09'0 0.0
2017-Sep-11 04:28N 29°48' W 092°09'0 0.0
2017-Sep-11 04:00N 29°48' W 092°09'0 0.0
2017-Sep-11 03:30N 29°48' W 092°09'0 0.0
2017-Sep-11 02:56N 29°48' W 092°09'0 0.0
2017-Sep-11 02:30N 29°48' W 092°09'2 2.9
2017-Sep-11 01:57N 29°47' W 092°10'1 1.5
2017-Sep-11 01:30N 29°47' W 092°11'0 0.0
2017-Sep-11 01:00N 29°47' W 092°11'2 4.3
2017-Sep-11 00:30N 29°47' W 092°09'714.6
2017-Sep-11 00:01N 29°41' W 092°04'816.4
2017-Sep-10 23:30N 29°33' W 092°02'  
Track history (hours):
 
Tides and Currents Weather Stations Pressure Air Temp Water Temp Dewpoint Dewpoint Depression Visibility Wind Speed Wind Dir Waves Ship Positions

Titus

Owner: Y & S MARINE INC, Belle Chasse, LA. More information available from US FCC via Universal Licensing System and Coast Guard Vessel Documentation Center.

Last reported at 2017-Sep-20 08:36 UTC. Time now 2017-Sep-22 09:53 UTC.
Position N 29°44' W 092°06'.

Length 32 m; draft 2 m.

MMSI: 367090270.

Date/timePositionNaut miles runAvg speedWind from/ knotsBaromVisibWave heightAir tempDewpointWater temp
2017-Sep-20 08:36N 29°44' W 092°06'219.6
2017-Sep-20 08:31N 29°45' W 092°07'2 4.4
2017-Sep-20 08:00N 29°48' W 092°09'0 0.0
2017-Sep-20 07:30N 29°48' W 092°09'0 0.0
2017-Sep-20 07:00N 29°48' W 092°09'0 0.0
2017-Sep-20 06:30N 29°48' W 092°09'0 0.0
2017-Sep-20 06:00N 29°48' W 092°09'0 0.0
2017-Sep-20 05:30N 29°48' W 092°09'0 0.0
2017-Sep-20 05:00N 29°48' W 092°09'0 0.0
2017-Sep-20 04:30N 29°48' W 092°09'0 0.0
2017-Sep-20 04:00N 29°48' W 092°09'0 0.0
2017-Sep-20 03:30N 29°48' W 092°09'1 2.0
2017-Sep-20 03:00N 29°47' W 092°10'1 2.3
2017-Sep-20 02:30N 29°47' W 092°11'0 0.0
2017-Sep-20 02:00N 29°47' W 092°11'2 4.0
2017-Sep-20 01:30N 29°47' W 092°09'0 0.9
2017-Sep-20 01:00N 29°48' W 092°09'0 0.0
2017-Sep-20 00:30N 29°48' W 092°09'0 0.2
2017-Sep-20 00:00N 29°47' W 092°09'0 0.0
2017-Sep-19 23:30N 29°47' W 092°09'0 0.0
2017-Sep-19 23:00N 29°47' W 092°09'4 7.9
2017-Sep-19 22:30N 29°44' W 092°06'  
2017-Sep-16 03:02N 29°42' W 092°05'219.0
2017-Sep-16 02:56N 29°44' W 092°06'510.6
2017-Sep-16 02:30N 29°47' W 092°11'0 0.3
2017-Sep-16 02:00N 29°47' W 092°11'0 0.0
2017-Sep-16 01:28N 29°47' W 092°11'0 0.0
2017-Sep-16 01:00N 29°47' W 092°11'2 4.2
2017-Sep-16 00:30N 29°48' W 092°09'0 0.0
2017-Sep-16 00:00N 29°48' W 092°09'3 5.8
2017-Sep-15 23:31N 29°48' W 092°05'2 0.1
2017-Sep-15 02:53N 29°49' W 092°03'513.3
2017-Sep-15 02:30N 29°47' W 092°08'2 4.8
2017-Sep-15 02:01N 29°47' W 092°11'0 0.0
2017-Sep-15 01:30N 29°47' W 092°11'2 4.2
2017-Sep-15 01:00N 29°47' W 092°09'0 0.1
2017-Sep-15 00:30N 29°48' W 092°09'4 8.4
2017-Sep-15 00:00N 29°44' W 092°06'2 0.1
2017-Sep-13 13:45N 29°42' W 092°05'518.2
2017-Sep-13 13:30N 29°46' W 092°08'3 6.2
2017-Sep-13 13:00N 29°47' W 092°11'0 0.0
2017-Sep-13 12:30N 29°47' W 092°11'2 4.3
2017-Sep-13 12:00N 29°48' W 092°09'4 7.4
2017-Sep-13 11:30N 29°44' W 092°07'3 0.8
2017-Sep-13 08:08N 29°42' W 092°05'318.9
2017-Sep-13 07:59N 29°45' W 092°07'3 7.2
2017-Sep-13 07:30N 29°48' W 092°09'0 0.0
2017-Sep-13 07:00N 29°48' W 092°09'0 0.0
2017-Sep-13 06:30N 29°48' W 092°09'0 0.0
2017-Sep-13 06:00N 29°48' W 092°09'0 0.0
2017-Sep-13 05:30N 29°48' W 092°09'1 2.5
2017-Sep-13 05:00N 29°47' W 092°10'1 1.9
2017-Sep-13 04:30N 29°47' W 092°11'0 0.0
2017-Sep-13 04:00N 29°47' W 092°11'0 0.0
2017-Sep-13 03:30N 29°47' W 092°11'0 0.0
2017-Sep-13 03:00N 29°47' W 092°11'0 0.0
2017-Sep-13 02:31N 29°47' W 092°11'2 3.8
2017-Sep-13 02:00N 29°47' W 092°09'0 0.9
2017-Sep-13 01:31N 29°47' W 092°09'0 0.0
2017-Sep-13 01:00N 29°47' W 092°09'0 0.1
2017-Sep-13 00:30N 29°48' W 092°09'0 0.0
2017-Sep-13 00:00N 29°48' W 092°09'0 0.0
2017-Sep-12 23:30N 29°48' W 092°09'5 9.2
2017-Sep-12 23:00N 29°44' W 092°06'2 0.2
2017-Sep-12 08:17N 29°45' W 092°07'2 7.8
2017-Sep-12 08:00N 29°48' W 092°09'0 0.0
2017-Sep-12 07:30N 29°48' W 092°09'0 0.0
2017-Sep-12 06:59N 29°48' W 092°09'0 0.0
2017-Sep-12 06:30N 29°48' W 092°09'0 0.0
2017-Sep-12 05:59N 29°48' W 092°09'0 0.0
2017-Sep-12 05:29N 29°48' W 092°09'0 0.0
2017-Sep-12 05:00N 29°48' W 092°09'0 0.0
2017-Sep-12 04:30N 29°48' W 092°09'0 0.0
2017-Sep-12 04:00N 29°48' W 092°09'0 0.0
2017-Sep-12 03:30N 29°48' W 092°09'0 0.0
2017-Sep-12 03:00N 29°48' W 092°09'0 0.0
2017-Sep-12 02:30N 29°48' W 092°09'0 0.0
2017-Sep-12 02:00N 29°48' W 092°09'0 0.0
2017-Sep-12 01:30N 29°48' W 092°09'0 0.0
2017-Sep-12 01:00N 29°48' W 092°09'3 5.7
2017-Sep-12 00:30N 29°45' W 092°07'3 0.2
2017-Sep-11 08:28N 29°42' W 092°05'612.9
2017-Sep-11 08:01N 29°48' W 092°09'0 0.0
2017-Sep-11 07:29N 29°48' W 092°09'0 0.0
2017-Sep-11 06:58N 29°48' W 092°09'0 0.0
2017-Sep-11 06:30N 29°48' W 092°09'0 0.0
2017-Sep-11 05:58N 29°48' W 092°09'0 0.0
2017-Sep-11 05:29N 29°48' W 092°09'0 0.0
2017-Sep-11 05:01N 29°48' W 092°09'0 0.0
2017-Sep-11 04:28N 29°48' W 092°09'0 0.0
2017-Sep-11 04:00N 29°48' W 092°09'0 0.0
2017-Sep-11 03:30N 29°48' W 092°09'0 0.0
2017-Sep-11 02:56N 29°48' W 092°09'0 0.0
2017-Sep-11 02:30N 29°48' W 092°09'2 2.9
2017-Sep-11 01:57N 29°47' W 092°10'1 1.5
2017-Sep-11 01:30N 29°47' W 092°11'0 0.0
2017-Sep-11 01:00N 29°47' W 092°11'2 4.3
2017-Sep-11 00:30N 29°47' W 092°09'714.6
2017-Sep-11 00:01N 29°41' W 092°04'816.4
2017-Sep-10 23:30N 29°33' W 092°02'  

Dump ship's entire track history